Time;durP1;ratioP1;P1;durP2;ratioP2;P2;SDS_P1;SDS_P2;PMS_P1;PMS_P2;Temp;Humidity;BMP_temperature;BMP_pressure;BME280_temperature;BME280_humidity;BME280_pressure;Samples;Min_cycle;Max_cycle;Signal;HPM_P1;HPM_P2
2023/03/31 00:24:53;;;;;;;4.57;1.90;;;;;;;10.25;100.00;99705.94;4971918;28;20218;-70
2023/03/31 00:27:19;;;;;;;4.70;1.50;;;;;;;10.08;100.00;99704.09;4972977;28;20734;-70
2023/03/31 00:29:46;;;;;;;6.03;1.80;;;;;;;9.97;100.00;99689.03;4987619;28;20348;-70
2023/03/31 00:32:13;;;;;;;6.83;2.10;;;;;;;9.90;100.00;99684.59;4990200;28;20193;-70
2023/03/31 00:34:39;;;;;;;3.30;1.50;;;;;;;9.87;100.00;99687.22;4989542;28;20204;-71
2023/03/31 00:37:08;;;;;;;5.10;1.90;;;;;;;10.01;100.00;99685.56;4990423;28;20192;-71
2023/03/31 00:39:35;;;;;;;3.33;1.70;;;;;;;10.09;100.00;99682.94;4989748;28;20219;-71
2023/03/31 00:42:03;;;;;;;7.30;1.77;;;;;;;10.02;100.00;99675.84;4990279;28;20663;-70
2023/03/31 00:44:32;;;;;;;6.73;2.30;;;;;;;9.90;100.00;99679.31;4989660;28;20313;-71
2023/03/31 00:47:16;;;;;;;6.23;1.60;;;;;;;9.79;100.00;99670.44;4990378;28;20223;-71
2023/03/31 00:49:47;;;;;;;7.93;2.67;;;;;;;9.74;100.00;99662.50;4971279;28;20647;-71
2023/03/31 00:52:36;;;;;;;7.27;1.80;;;;;;;9.80;100.00;99659.00;4986921;28;20663;-71
2023/03/31 00:55:07;;;;;;;9.33;2.57;;;;;;;9.77;100.00;99655.44;4982187;28;20567;-71
2023/03/31 00:57:38;;;;;;;4.33;1.80;;;;;;;9.68;100.00;99648.38;4983184;28;20234;-71
2023/03/31 01:00:14;;;;;;;4.30;2.10;;;;;;;9.62;100.00;99657.16;4990212;28;20279;-71
2023/03/31 01:02:51;;;;;;;7.27;2.47;;;;;;;9.65;100.00;99654.53;4973134;28;20233;-71
2023/03/31 01:05:33;;;;;;;10.40;2.20;;;;;;;9.46;100.00;99634.13;4972246;28;20588;-70
2023/03/31 01:08:01;;;;;;;8.07;2.00;;;;;;;9.48;100.00;99635.03;4986581;28;20733;-71
2023/03/31 01:10:28;;;;;;;7.33;2.30;;;;;;;9.46;100.00;99623.56;5002819;28;20673;-71
2023/03/31 01:12:56;;;;;;;4.13;1.93;;;;;;;9.46;100.00;99620.91;4986711;28;20228;-71
2023/03/31 01:15:23;;;;;;;9.53;2.30;;;;;;;9.40;100.00;99619.13;4990254;28;20203;-71
2023/03/31 01:17:54;;;;;;;5.53;2.00;;;;;;;9.42;100.00;99609.44;4991357;28;20210;-71
2023/03/31 01:20:48;;;;;;;4.60;2.20;;;;;;;9.43;100.00;99603.28;4992974;28;20226;-71
2023/03/31 01:23:29;;;;;;;5.33;2.17;;;;;;;9.42;100.00;99598.00;4990775;28;20214;-71
2023/03/31 01:26:37;;;;;;;7.77;2.03;;;;;;;9.42;100.00;99600.63;4989454;28;20237;-71
2023/03/31 01:29:32;;;;;;;6.93;1.93;;;;;;;9.39;100.00;99587.41;4983819;28;20608;-71
2023/03/31 01:32:23;;;;;;;6.03;2.10;;;;;;;9.35;100.00;99575.06;4992362;28;20707;-71
2023/03/31 01:35:26;;;;;;;4.07;2.13;;;;;;;9.31;100.00;99570.63;4993721;28;20553;-71
2023/03/31 01:38:20;;;;;;;7.77;2.40;;;;;;;9.24;100.00;99569.72;4989611;28;20218;-71
2023/03/31 01:41:07;;;;;;;5.03;2.30;;;;;;;9.18;100.00;99568.78;4986861;28;20214;-71
2023/03/31 01:43:48;;;;;;;5.20;2.50;;;;;;;9.19;100.00;99560.88;4984463;28;20235;-71
2023/03/31 01:46:27;;;;;;;5.37;1.83;;;;;;;9.13;100.00;99554.66;4984725;28;20216;-71
2023/03/31 01:49:01;;;;;;;6.47;2.30;;;;;;;9.05;100.00;99542.31;4993821;28;20219;-71
2023/03/31 01:51:59;;;;;;;4.67;2.30;;;;;;;9.00;100.00;99535.25;4980631;28;20217;-71
2023/03/31 01:55:14;;;;;;;5.37;2.30;;;;;;;8.96;100.00;99534.34;4936071;28;20209;-71
2023/03/31 01:57:56;;;;;;;5.70;2.13;;;;;;;8.92;100.00;99511.44;4985459;28;20201;-71
2023/03/31 02:00:28;;;;;;;6.03;2.43;;;;;;;8.93;100.00;99512.31;4991803;28;20203;-71
2023/03/31 02:03:12;;;;;;;7.83;2.57;;;;;;;8.94;100.00;99507.03;4989869;28;20229;-71
2023/03/31 02:05:46;;;;;;;6.47;2.83;;;;;;;8.99;100.00;99497.38;4990706;28;20207;-71
2023/03/31 02:08:20;;;;;;;5.70;3.00;;;;;;;9.03;100.00;99511.50;4989329;28;20246;-70
2023/03/31 02:10:48;;;;;;;6.80;2.50;;;;;;;9.00;100.00;99499.16;4993462;28;20624;-71
2023/03/31 02:13:16;;;;;;;9.07;2.93;;;;;;;9.14;100.00;99504.50;4982070;28;20205;-71
2023/03/31 02:15:47;;;;;;;8.03;2.87;;;;;;;9.10;100.00;99487.75;4974207;28;20258;-71
2023/03/31 02:18:17;;;;;;;5.90;2.60;;;;;;;9.04;100.00;99482.44;4988837;28;20605;-71
2023/03/31 02:20:47;;;;;;;7.00;2.30;;;;;;;9.05;100.00;99480.69;4974594;28;20200;-71
2023/03/31 02:23:18;;;;;;;5.80;2.67;;;;;;;9.10;100.00;99478.94;4991489;28;20211;-71
2023/03/31 02:25:50;;;;;;;7.63;3.23;;;;;;;9.21;100.00;99479.91;4993023;28;20207;-71
2023/03/31 02:28:24;;;;;;;5.47;2.90;;;;;;;9.17;100.00;99469.28;4991123;28;20227;-71
2023/03/31 02:31:12;;;;;;;8.57;2.80;;;;;;;9.13;100.00;99468.38;4992255;28;20195;-70
2023/03/31 02:33:39;;;;;;;9.20;3.10;;;;;;;9.24;100.00;99471.97;4990386;28;20218;-70
2023/03/31 02:36:06;;;;;;;7.00;2.83;;;;;;;9.21;100.00;99473.72;4992256;28;20204;-70
2023/03/31 02:38:38;;;;;;;8.77;2.80;;;;;;;9.22;100.00;99464.94;4992919;28;20234;-71
2023/03/31 02:41:06;;;;;;;8.93;3.57;;;;;;;9.28;100.00;99471.13;4975176;28;20202;-70
2023/03/31 02:43:32;;;;;;;8.77;3.40;;;;;;;9.33;100.00;99466.72;4991996;28;20198;-71
2023/03/31 02:45:58;;;;;;;8.17;3.27;;;;;;;9.29;100.00;99459.66;4992629;28;20257;-71
2023/03/31 02:48:29;;;;;;;10.57;3.50;;;;;;;9.37;100.00;99451.75;4991478;28;20248;-70
2023/03/31 02:51:31;;;;;;;11.80;3.80;;;;;;;9.32;100.00;99450.88;4987990;28;20233;-70
2023/03/31 02:54:16;;;;;;;6.27;3.47;;;;;;;9.31;100.00;99436.78;4973680;28;20721;-70
2023/03/31 02:56:57;;;;;;;8.50;3.83;;;;;;;9.31;100.00;99418.28;4990317;28;20199;-70
2023/03/31 03:00:13;;;;;;;8.53;3.37;;;;;;;9.39;100.00;99411.25;4992058;28;20716;-70
2023/03/31 03:03:08;;;;;;;7.83;3.10;;;;;;;9.39;100.00;99376.91;4905983;28;20212;-71
2023/03/31 03:05:57;;;;;;;9.60;3.63;;;;;;;9.40;100.00;99362.81;4979289;28;20197;-71
2023/03/31 03:08:26;;;;;;;8.43;3.27;;;;;;;9.42;100.00;99344.31;4991434;28;20249;-70
2023/03/31 03:11:17;;;;;;;11.90;3.73;;;;;;;9.36;100.00;99342.53;4991369;28;20200;-70
2023/03/31 03:13:51;;;;;;;8.37;3.40;;;;;;;9.32;100.00;99334.63;4972577;28;20234;-71
2023/03/31 03:16:26;;;;;;;13.43;4.03;;;;;;;9.28;100.00;99339.00;5007172;28;20193;-71
2023/03/31 03:18:57;;;;;;;10.10;4.27;;;;;;;9.19;100.00;99340.72;4973434;28;20217;-71
2023/03/31 03:21:24;;;;;;;9.43;3.47;;;;;;;9.13;100.00;99356.56;4991955;28;20229;-71
2023/03/31 03:23:51;;;;;;;7.30;3.40;;;;;;;9.10;100.00;99362.72;4974433;28;20251;-71
2023/03/31 03:26:23;;;;;;;9.37;3.63;;;;;;;9.19;100.00;99359.22;4991984;28;20224;-71
2023/03/31 03:28:50;;;;;;;7.50;3.67;;;;;;;9.26;100.00;99353.97;4988153;28;20716;-71
2023/03/31 03:31:16;;;;;;;11.27;3.40;;;;;;;9.31;100.00;99302.03;4985946;28;20207;-71
2023/03/31 03:33:43;;;;;;;10.23;3.47;;;;;;;9.42;100.00;99302.91;4989813;28;20250;-71
2023/03/31 03:36:10;;;;;;;8.93;3.57;;;;;;;9.37;100.00;99311.72;4990935;28;20207;-71
2023/03/31 03:38:36;;;;;;;11.47;3.03;;;;;;;9.29;100.00;99319.66;4973141;28;20301;-71
2023/03/31 03:41:03;;;;;;;7.77;3.10;;;;;;;9.25;100.00;99299.38;4991073;28;20266;-71
2023/03/31 03:43:29;;;;;;;11.00;3.53;;;;;;;9.33;100.00;99299.38;4981623;28;20462;-70
2023/03/31 03:45:55;;;;;;;13.07;3.40;;;;;;;9.25;100.00;99309.06;4985462;28;20630;-71
2023/03/31 03:48:22;;;;;;;8.13;2.80;;;;;;;9.22;100.00;99294.09;4990858;28;20311;-71
2023/03/31 03:50:48;;;;;;;13.60;3.67;;;;;;;9.20;100.00;99276.47;4990747;28;20247;-71
2023/03/31 03:53:15;;;;;;;9.43;3.43;;;;;;;9.26;100.00;99244.78;4989933;28;20201;-71
2023/03/31 03:55:41;;;;;;;9.90;3.20;;;;;;;9.29;100.00;99239.50;4979861;28;20640;-71
2023/03/31 03:58:07;;;;;;;9.07;2.70;;;;;;;9.18;100.00;99246.53;5010505;23;20207;-74
2023/03/31 04:00:34;;;;;;;6.90;2.73;;;;;;;9.14;100.00;99264.13;5030645;28;20210;-73
2023/03/31 04:03:01;;;;;;;12.80;3.53;;;;;;;9.13;100.00;99261.50;5043430;28;20700;-73
2023/03/31 04:05:27;;;;;;;7.50;3.20;;;;;;;9.26;100.00;99245.66;5049875;28;20583;-73
2023/03/31 04:07:53;;;;;;;6.00;3.33;;;;;;;9.21;100.00;99247.44;5050093;28;20597;-73
2023/03/31 04:10:20;;;;;;;8.60;3.27;;;;;;;9.10;100.00;99249.16;5032642;28;20202;-73
2023/03/31 04:12:46;;;;;;;7.70;3.53;;;;;;;9.11;100.00;99258.84;5034957;28;20198;-73
2023/03/31 04:15:12;;;;;;;8.87;3.80;;;;;;;9.06;100.00;99252.69;5045256;28;20583;-73
2023/03/31 04:17:39;;;;;;;8.60;3.40;;;;;;;9.06;100.00;99253.56;5029805;28;20195;-73
2023/03/31 04:20:08;;;;;;;7.97;2.80;;;;;;;9.02;100.00;99251.81;5028802;28;20254;-74
2023/03/31 04:22:39;;;;;;;10.93;3.30;;;;;;;9.00;100.00;99245.63;5030126;28;20197;-73
2023/03/31 04:25:15;;;;;;;6.47;3.07;;;;;;;8.99;100.00;99240.34;5017549;28;20197;-73
2023/03/31 04:27:49;;;;;;;6.30;2.77;;;;;;;9.09;100.00;99232.44;5029410;28;20221;-73
2023/03/31 04:30:22;;;;;;;9.03;3.50;;;;;;;9.17;100.00;99226.28;5032877;28;20197;-73
2023/03/31 04:32:57;;;;;;;8.43;3.63;;;;;;;9.14;100.00;99218.34;5035282;28;20260;-73
2023/03/31 04:35:26;;;;;;;10.20;3.20;;;;;;;9.11;100.00;99209.53;5028120;28;20210;-73
2023/03/31 04:37:59;;;;;;;10.90;3.27;;;;;;;9.09;100.00;99198.09;5017602;28;20225;-73
2023/03/31 04:40:25;;;;;;;7.00;3.30;;;;;;;9.13;100.00;99180.50;5030576;28;20220;-73
2023/03/31 04:42:52;;;;;;;5.93;3.57;;;;;;;9.11;100.00;99171.69;5035187;28;20204;-73
2023/03/31 04:45:18;;;;;;;6.63;3.20;;;;;;;9.14;100.00;99184.00;5032247;28;20236;-73
2023/03/31 04:47:44;;;;;;;7.90;3.43;;;;;;;9.14;100.00;99179.63;5029796;28;20218;-74
2023/03/31 04:50:11;;;;;;;5.43;3.57;;;;;;;9.15;100.00;99193.69;5027584;28;20232;-73
2023/03/31 04:52:42;;;;;;;7.17;3.20;;;;;;;9.14;100.00;99198.09;5032751;28;20710;-73
2023/03/31 04:55:09;;;;;;;8.13;3.17;;;;;;;9.16;100.00;99191.06;5033438;28;20209;-74
2023/03/31 04:57:36;;;;;;;10.87;3.60;;;;;;;9.21;100.00;99196.38;5036296;28;20190;-73
2023/03/31 05:00:06;;;;;;;7.67;2.90;;;;;;;9.22;100.00;99203.41;5020296;28;20218;-73
2023/03/31 05:02:33;;;;;;;8.20;3.17;;;;;;;9.34;100.00;99211.31;5013353;28;20233;-73
2023/03/31 05:05:00;;;;;;;8.07;2.70;;;;;;;9.32;100.00;99213.97;5053794;28;20615;-73
2023/03/31 05:07:26;;;;;;;7.20;3.07;;;;;;;9.26;100.00;99206.03;5045136;28;20206;-73
2023/03/31 05:09:52;;;;;;;7.50;3.00;;;;;;;9.26;100.00;99200.75;5032444;28;20242;-73
2023/03/31 05:12:19;;;;;;;8.10;2.97;;;;;;;9.36;100.00;99196.34;5033972;28;20195;-73
2023/03/31 05:14:45;;;;;;;10.13;2.73;;;;;;;9.29;100.00;99192.84;5033375;28;20285;-73
2023/03/31 05:17:12;;;;;;;7.07;2.70;;;;;;;9.32;100.00;99187.53;5033777;28;20200;-73
2023/03/31 05:19:38;;;;;;;9.10;2.60;;;;;;;9.28;100.00;99187.56;5033761;28;20217;-73
2023/03/31 05:22:05;;;;;;;5.60;2.30;;;;;;;9.29;100.00;99176.97;5033227;28;20236;-73
2023/03/31 05:24:31;;;;;;;7.10;2.73;;;;;;;9.28;100.00;99169.94;5028727;28;20285;-73
2023/03/31 05:26:57;;;;;;;9.87;2.50;;;;;;;9.29;100.00;99166.41;5033967;28;20228;-73
2023/03/31 05:29:24;;;;;;;5.17;2.20;;;;;;;9.37;100.00;99164.63;5033353;28;20236;-71
2023/03/31 05:31:52;;;;;;;8.87;2.20;;;;;;;9.37;100.00;99156.72;5043058;28;20671;-71
2023/03/31 05:34:19;;;;;;;4.07;1.87;;;;;;;9.35;100.00;99144.38;5045701;28;20598;-71
2023/03/31 05:36:47;;;;;;;5.00;1.80;;;;;;;9.35;100.00;99137.34;5026356;28;20202;-72
2023/03/31 05:39:13;;;;;;;4.93;1.90;;;;;;;9.35;100.00;99128.53;5033098;28;20294;-72
2023/03/31 05:41:39;;;;;;;9.03;1.90;;;;;;;9.34;100.00;99117.09;5034315;28;20688;-72
2023/03/31 05:44:06;;;;;;;8.80;1.77;;;;;;;9.30;100.00;99111.81;5030805;28;20206;-72
2023/03/31 05:46:32;;;;;;;4.60;1.73;;;;;;;9.34;100.00;99105.63;5035047;28;20198;-72
2023/03/31 05:48:59;;;;;;;8.60;2.00;;;;;;;9.32;100.00;99097.72;5044520;28;20701;-72
2023/03/31 05:51:25;;;;;;;4.40;1.80;;;;;;;9.32;100.00;99092.44;5031314;28;20750;-72
2023/03/31 05:53:51;;;;;;;8.40;2.10;;;;;;;9.35;100.00;99084.50;5031365;28;20211;-72
2023/03/31 05:56:18;;;;;;;6.17;2.40;;;;;;;9.38;100.00;99070.38;5033264;28;20234;-72
2023/03/31 05:58:44;;;;;;;7.03;2.23;;;;;;;9.42;100.00;99070.38;5032088;28;20225;-73
2023/03/31 06:01:18;;;;;;;9.47;3.80;;;;;;;9.46;100.00;99051.88;5032342;28;20294;-73
2023/03/31 06:03:45;;;;;;;7.93;2.40;;;;;;;9.50;100.00;99045.69;5031607;28;20201;-72
2023/03/31 06:06:12;;;;;;;6.63;2.40;;;;;;;9.55;100.00;99041.25;5032787;28;20219;-73
2023/03/31 06:08:38;;;;;;;13.57;3.60;;;;;;;9.57;100.00;99034.19;5028375;28;20225;-72
2023/03/31 06:11:06;;;;;;;13.10;4.33;;;;;;;9.60;100.00;99023.59;5031956;28;20192;-73
2023/03/31 06:13:35;;;;;;;12.10;4.57;;;;;;;9.61;100.00;99020.09;4995405;28;20212;-72
2023/03/31 06:16:02;;;;;;;16.67;5.57;;;;;;;9.65;100.00;99009.50;5030648;28;20210;-73
2023/03/31 06:18:30;;;;;;;9.73;3.27;;;;;;;9.69;100.00;98997.16;5031385;28;20290;-73
2023/03/31 06:20:57;;;;;;;7.33;2.50;;;;;;;9.73;100.00;98990.97;5032272;28;20228;-73
2023/03/31 06:23:24;;;;;;;7.40;2.60;;;;;;;9.73;100.00;98993.59;5043458;28;20202;-73
2023/03/31 06:25:51;;;;;;;8.20;1.97;;;;;;;9.72;100.00;98991.84;5034601;28;20201;-72
2023/03/31 06:28:19;;;;;;;6.97;2.33;;;;;;;9.71;100.00;98982.16;5026886;28;20713;-71
2023/03/31 06:30:46;;;;;;;17.07;5.57;;;;;;;9.78;100.00;98972.41;5013914;28;20616;-73
2023/03/31 06:33:13;;;;;;;14.80;4.73;;;;;;;9.79;100.00;98967.13;5029106;28;20292;-73
2023/03/31 06:35:40;;;;;;;22.33;4.90;;;;;;;9.79;100.00;98951.25;5031639;28;20795;-72
2023/03/31 06:38:07;;;;;;;14.30;5.03;;;;;;;9.79;100.00;98951.25;5035143;28;20253;-73
2023/03/31 06:40:33;;;;;;;15.70;6.67;;;;;;;9.78;100.00;98946.84;5032356;28;20199;-72
2023/03/31 06:43:00;;;;;;;15.37;4.70;;;;;;;9.80;100.00;98936.28;5022945;28;20246;-72
2023/03/31 06:45:26;;;;;;;15.70;4.33;;;;;;;9.80;100.00;98938.91;5020436;28;20250;-73
2023/03/31 06:47:52;;;;;;;8.50;2.67;;;;;;;9.85;100.00;98934.47;5025655;28;20197;-72
2023/03/31 06:50:19;;;;;;;7.97;2.80;;;;;;;9.81;100.00;98936.25;5031211;28;20281;-71
2023/03/31 06:52:45;;;;;;;9.27;2.50;;;;;;;9.83;100.00;98939.78;5030802;28;20232;-72
2023/03/31 06:55:14;;;;;;;8.87;2.87;;;;;;;9.89;100.00;98934.44;5030417;28;20206;-72
2023/03/31 06:57:41;;;;;;;6.00;2.60;;;;;;;9.89;100.00;98937.06;5031280;28;20292;-72
2023/03/31 07:00:08;;;;;;;5.77;2.53;;;;;;;9.91;100.00;98931.78;5025842;28;20258;-73
2023/03/31 07:02:35;;;;;;;8.00;3.30;;;;;;;9.86;100.00;98939.75;5025900;28;20208;-73
2023/03/31 07:05:02;;;;;;;6.27;3.00;;;;;;;9.90;100.00;98954.69;5026183;28;20270;-73
2023/03/31 07:07:32;;;;;;;7.97;2.87;;;;;;;9.96;100.00;98999.59;5024182;28;20204;-73
2023/03/31 07:09:58;;;;;;;9.73;3.10;;;;;;;9.91;100.00;99021.69;5011975;28;20223;-73
2023/03/31 07:12:25;;;;;;;8.47;2.97;;;;;;;9.77;100.00;98991.81;5027379;28;20246;-72
2023/03/31 07:14:51;;;;;;;15.43;3.40;;;;;;;9.75;100.00;98970.69;5025894;28;20234;-72
2023/03/31 07:17:18;;;;;;;13.47;4.13;;;;;;;9.73;100.00;98962.75;5007144;28;20192;-72
2023/03/31 07:19:46;;;;;;;11.47;3.07;;;;;;;9.74;100.00;98945.13;5031463;28;20657;-73
2023/03/31 07:22:14;;;;;;;9.43;3.30;;;;;;;9.66;100.00;98931.97;5024662;28;20246;-72
2023/03/31 07:24:40;;;;;;;9.73;2.97;;;;;;;9.66;100.00;98925.81;5026755;28;20201;-73
2023/03/31 07:27:07;;;;;;;9.97;3.20;;;;;;;9.73;100.00;98931.03;5037369;28;20204;-72
2023/03/31 07:29:34;;;;;;;11.70;3.33;;;;;;;9.86;100.00;98944.16;5032191;28;20223;-72
2023/03/31 07:32:00;;;;;;;11.33;3.63;;;;;;;10.17;100.00;98947.44;5035721;28;20678;-72
2023/03/31 07:34:27;;;;;;;8.27;3.33;;;;;;;10.19;100.00;98948.31;5032437;28;20207;-72
2023/03/31 07:36:54;;;;;;;5.33;2.40;;;;;;;10.24;100.00;98952.72;5030440;28;20533;-71
2023/03/31 07:39:21;;;;;;;7.90;3.50;;;;;;;10.29;100.00;98923.56;5026032;28;20223;-72
2023/03/31 07:41:47;;;;;;;6.43;2.80;;;;;;;10.51;100.00;98916.31;5036402;28;20234;-73
2023/03/31 07:44:16;;;;;;;11.77;3.23;;;;;;;10.99;100.00;98910.47;5032965;28;20229;-72
2023/03/31 07:46:42;;;;;;;7.50;2.53;;;;;;;11.36;100.00;98903.81;5033484;28;20285;-72
2023/03/31 07:49:09;;;;;;;7.10;2.57;;;;;;;11.48;100.00;98915.13;5030053;28;20225;-73
2023/03/31 07:51:35;;;;;;;7.33;3.20;;;;;;;11.62;100.00;98914.94;5023991;28;20209;-72
2023/03/31 07:54:02;;;;;;;6.53;3.20;;;;;;;11.64;100.00;98915.78;5034306;28;20255;-71
2023/03/31 07:56:28;;;;;;;10.10;3.60;;;;;;;11.50;100.00;98923.06;5014933;28;20229;-73
2023/03/31 07:58:55;;;;;;;7.20;3.43;;;;;;;11.35;100.00;98933.88;5030793;28;20275;-73
2023/03/31 08:01:24;;;;;;;5.10;2.80;;;;;;;11.23;100.00;98943.75;5044039;28;20192;-73
2023/03/31 08:03:53;;;;;;;5.47;2.70;;;;;;;11.22;100.00;98939.34;5025114;28;20289;-72
2023/03/31 08:06:22;;;;;;;8.03;2.60;;;;;;;11.22;100.00;98923.44;5031390;28;20195;-73
2023/03/31 08:08:51;;;;;;;5.60;2.50;;;;;;;11.22;100.00;98923.44;5025895;28;20257;-72
2023/03/31 08:11:17;;;;;;;4.47;2.53;;;;;;;11.71;100.00;98924.53;5027260;28;20208;-74
2023/03/31 08:13:43;;;;;;;6.80;2.57;;;;;;;12.17;100.00;98932.69;5039399;28;20247;-72
2023/03/31 08:16:10;;;;;;;6.83;2.40;;;;;;;12.40;100.00;98929.63;5032597;28;20192;-72
2023/03/31 08:18:36;;;;;;;4.60;2.10;;;;;;;12.62;100.00;98933.66;5031117;28;20225;-72
2023/03/31 08:21:03;;;;;;;5.80;1.60;;;;;;;12.78;96.75;98923.63;5017345;28;20213;-72
2023/03/31 08:23:30;;;;;;;3.30;1.77;;;;;;;12.87;95.49;98926.13;5032614;28;20207;-73
2023/03/31 08:26:11;;;;;;;4.83;1.67;;;;;;;12.89;94.72;98912.81;5030256;28;20214;-72
2023/03/31 08:28:41;;;;;;;4.10;1.90;;;;;;;12.80;94.90;98900.53;5029632;28;20742;-73
2023/03/31 08:31:09;;;;;;;2.97;1.50;;;;;;;12.80;93.83;98901.41;5034215;28;20219;-76
2023/03/31 08:33:36;;;;;;;3.73;1.37;;;;;;;12.82;93.94;98896.09;5026434;28;20217;-75
2023/03/31 08:36:05;;;;;;;2.43;1.47;;;;;;;12.68;93.56;98896.34;5034006;28;20195;-79
2023/03/31 08:38:31;;;;;;;2.87;1.77;;;;;;;12.64;93.84;98912.38;5029910;28;20750;-79
2023/03/31 08:41:00;;;;;;;5.10;2.17;;;;;;;12.49;93.41;98910.91;5032252;28;20210;-79
2023/03/31 08:43:32;;;;;;;3.00;1.40;;;;;;;12.58;94.76;98901.88;5016041;28;20228;-77
2023/03/31 08:46:00;;;;;;;2.97;1.60;;;;;;;12.65;95.12;98908.81;5012415;28;20245;-79
2023/03/31 08:48:31;;;;;;;3.33;1.77;;;;;;;12.77;94.08;98898.81;5020759;28;20302;-77
2023/03/31 08:51:04;;;;;;;2.60;1.37;;;;;;;13.24;93.20;98899.72;5034453;28;20745;-81
2023/03/31 08:53:36;;;;;;;2.67;1.70;;;;;;;13.54;90.79;98892.81;5029874;28;20203;-84
2023/03/31 08:56:06;;;;;;;3.17;2.20;;;;;;;14.21;88.63;98893.88;5030212;28;20231;-82
2023/03/31 08:58:46;;;;;;;3.43;1.70;;;;;;;14.69;84.81;98875.75;5029068;28;20215;-81
2023/03/31 09:01:45;;;;;;;2.43;1.83;;;;;;;14.82;84.17;98884.31;5023907;28;20199;-79
2023/03/31 09:04:42;;;;;;;5.90;1.53;;;;;;;14.15;83.71;98880.72;5027989;28;20229;-80
2023/03/31 09:07:43;;;;;;;2.73;1.63;;;;;;;13.97;86.63;98878.50;5017382;28;20222;-79
2023/03/31 09:10:09;;;;;;;3.40;1.70;;;;;;;13.87;86.86;98880.50;5012335;28;20231;-79
2023/03/31 09:12:54;;;;;;;4.73;1.43;;;;;;;13.64;86.76;98878.41;5017580;28;20196;-82
2023/03/31 09:15:33;;;;;;;3.50;1.60;;;;;;;13.87;84.99;98885.84;5033800;28;20655;-81
2023/03/31 09:18:12;;;;;;;2.70;1.80;;;;;;;14.15;84.04;98886.03;5021517;28;20199;-81
2023/03/31 09:20:45;;;;;;;4.17;1.73;;;;;;;14.51;84.25;98897.56;5021034;28;20198;-81
2023/03/31 09:23:55;;;;;;;3.83;2.13;;;;;;;14.83;82.79;98886.06;5020050;28;20193;-81
2023/03/31 09:26:39;;;;;;;6.10;2.30;;;;;;;15.02;82.98;98889.06;4984939;28;20196;-80
2023/03/31 09:29:14;;;;;;;4.17;1.70;;;;;;;15.01;82.77;98888.19;5019207;28;20724;-75
2023/03/31 09:31:43;;;;;;;3.37;1.60;;;;;;;15.43;78.01;98878.97;5002535;28;20643;-75
2023/03/31 09:34:19;;;;;;;3.47;1.70;;;;;;;15.74;78.46;98874.47;5019902;28;20678;-75
2023/03/31 09:36:46;;;;;;;5.37;1.83;;;;;;;16.05;76.61;98857.44;5019416;28;20199;-74
2023/03/31 09:39:14;;;;;;;4.33;2.10;;;;;;;16.21;74.88;98850.66;5022576;28;20215;-72
2023/03/31 09:41:45;;;;;;;4.43;2.07;;;;;;;15.99;74.24;98853.16;5023514;28;20955;-72
2023/03/31 09:44:31;;;;;;;4.57;2.00;;;;;;;15.68;76.65;98833.75;5021664;28;20196;-72
2023/03/31 09:46:59;;;;;;;4.33;2.10;;;;;;;15.32;75.93;98834.81;5023804;28;20381;-72
2023/03/31 09:49:30;;;;;;;7.37;2.00;;;;;;;15.00;78.01;98832.25;5009580;28;20314;-73
2023/03/31 09:52:04;;;;;;;7.57;2.20;;;;;;;14.95;80.01;98813.72;5023666;28;20211;-72
2023/03/31 09:54:35;;;;;;;6.63;2.23;;;;;;;14.96;78.17;98812.78;5022467;28;20288;-73
2023/03/31 09:57:14;;;;;;;5.00;2.20;;;;;;;14.95;78.40;98818.19;5023138;28;20272;-75
2023/03/31 09:59:42;;;;;;;6.57;2.20;;;;;;;15.31;76.71;98797.53;5036355;23;20317;-74
2023/03/31 10:02:32;;;;;;;4.80;2.03;;;;;;;15.47;74.96;98806.78;5046614;28;20195;-73
2023/03/31 10:04:59;;;;;;;5.73;2.10;;;;;;;15.04;75.14;98813.44;5062697;28;20283;-73
2023/03/31 10:07:26;;;;;;;9.67;2.57;;;;;;;14.54;77.19;98835.34;5043911;28;20608;-73
2023/03/31 10:09:53;;;;;;;7.20;1.90;;;;;;;13.72;80.40;98855.16;5063310;28;20221;-73
2023/03/31 10:12:24;;;;;;;8.07;1.90;;;;;;;12.79;87.34;98843.00;5058372;28;20270;-74
2023/03/31 10:14:53;;;;;;;6.10;1.90;;;;;;;12.31;89.80;98855.47;5059433;28;20199;-73
2023/03/31 10:17:26;;;;;;;8.23;2.27;;;;;;;11.93;92.80;98868.50;5061535;28;20253;-72
2023/03/31 10:20:06;;;;;;;6.90;1.60;;;;;;;11.68;94.54;98860.94;5063838;28;20223;-74
2023/03/31 10:22:34;;;;;;;5.03;1.60;;;;;;;11.43;94.67;98845.38;5059256;28;20200;-77
2023/03/31 10:25:23;;;;;;;10.00;1.70;;;;;;;11.14;95.49;98834.31;5044010;28;20696;-78
2023/03/31 10:27:53;;;;;;;3.67;1.40;;;;;;;10.89;95.82;98834.66;5060857;28;20194;-81
2023/03/31 10:30:25;;;;;;;2.73;1.30;;;;;;;10.80;96.38;98831.25;5054727;28;20289;-79
2023/03/31 10:32:52;;;;;;;3.67;1.43;;;;;;;10.75;96.23;98819.81;5059930;28;20205;-77
2023/03/31 10:35:33;;;;;;;4.70;1.40;;;;;;;10.75;94.41;98815.41;5059767;28;20197;-76
2023/03/31 10:38:07;;;;;;;2.47;1.20;;;;;;;10.96;94.87;98815.16;5046051;28;20605;-74
2023/03/31 10:40:35;;;;;;;3.33;1.27;;;;;;;11.24;93.04;98806.81;5056292;28;20211;-75
2023/03/31 10:43:14;;;;;;;4.33;1.20;;;;;;;11.55;90.44;98809.84;5037063;28;20483;-76
2023/03/31 10:45:46;;;;;;;3.97;1.23;;;;;;;11.84;88.25;98802.34;5063327;28;20204;-78
2023/03/31 10:48:30;;;;;;;5.00;1.50;;;;;;;12.24;88.80;98798.97;5058180;28;20227;-78
2023/03/31 10:51:10;;;;;;;2.63;1.10;;;;;;;12.66;86.01;98812.31;5044902;28;20588;-82
2023/03/31 10:53:41;;;;;;;3.47;1.40;;;;;;;13.00;84.59;98804.50;5063065;28;20205;-80
2023/03/31 10:56:30;;;;;;;5.47;2.13;;;;;;;13.30;85.46;98805.63;5058384;28;20207;-77
2023/03/31 10:59:35;;;;;;;5.67;1.60;;;;;;;14.00;84.21;98810.09;5060432;28;20222;-75
2023/03/31 11:02:23;;;;;;;4.20;1.30;;;;;;;14.23;79.69;98803.31;5058188;28;20233;-74
2023/03/31 11:05:06;;;;;;;3.70;1.17;;;;;;;14.62;75.71;98798.69;5053653;28;20627;-72
2023/03/31 11:08:05;;;;;;;2.43;0.93;;;;;;;15.24;76.50;98794.19;5058461;28;20199;-72
2023/03/31 11:10:35;;;;;;;3.43;1.20;;;;;;;15.23;72.03;98794.22;5060267;28;20219;-73
2023/03/31 11:13:13;;;;;;;3.80;1.27;;;;;;;15.70;74.28;98805.22;5061098;28;20198;-74
2023/03/31 11:16:08;;;;;;;1.87;0.80;;;;;;;15.62;69.46;98790.34;5059807;28;20198;-72
2023/03/31 11:19:11;;;;;;;6.20;1.70;;;;;;;15.84;70.33;98797.59;5029934;28;20210;-72
2023/03/31 11:21:52;;;;;;;3.90;1.40;;;;;;;15.98;70.78;98795.34;5013552;28;20719;-74
2023/03/31 11:24:48;;;;;;;4.53;1.83;;;;;;;15.75;70.70;98797.94;5056809;28;20209;-71
2023/03/31 11:27:53;;;;;;;6.47;1.87;;;;;;;15.88;71.42;98792.13;5059787;28;20233;-71
2023/03/31 11:30:44;;;;;;;6.20;2.33;;;;;;;15.97;73.94;98786.47;5059409;28;20241;-72
2023/03/31 11:33:42;;;;;;;10.17;2.00;;;;;;;15.81;73.16;98781.69;5058826;28;20237;-71
2023/03/31 11:36:48;;;;;;;7.83;2.00;;;;;;;15.78;75.43;98780.00;5057181;28;20204;-72
2023/03/31 11:39:17;;;;;;;7.93;1.90;;;;;;;15.19;77.22;98781.88;5048865;28;20213;-71
2023/03/31 11:41:49;;;;;;;5.60;1.70;;;;;;;15.22;80.07;98765.81;5059116;28;20191;-71
2023/03/31 11:44:19;;;;;;;5.67;1.70;;;;;;;15.38;79.50;98763.53;5059610;28;20596;-72
2023/03/31 11:47:05;;;;;;;8.20;1.90;;;;;;;15.89;78.14;98747.59;5058148;28;20209;-72
2023/03/31 11:49:37;;;;;;;6.13;2.17;;;;;;;16.36;75.02;98753.06;5044158;28;20214;-72
2023/03/31 11:52:08;;;;;;;6.53;1.80;;;;;;;16.22;73.94;98756.22;5061171;28;20198;-71
2023/03/31 11:54:44;;;;;;;8.77;1.90;;;;;;;16.15;75.31;98739.56;5058508;28;20217;-72
2023/03/31 11:58:00;;;;;;;7.13;1.80;;;;;;;15.97;75.90;98750.88;5058908;28;20671;-72
2023/03/31 12:00:31;;;;;;;7.07;1.90;;;;;;;15.86;75.43;98753.03;5058769;28;20939;-70
2023/03/31 12:03:13;;;;;;;7.23;1.77;;;;;;;15.56;77.90;98770.91;5057595;28;20190;-72
2023/03/31 12:05:45;;;;;;;5.03;1.87;;;;;;;14.83;80.93;98774.09;5058628;28;20259;-72
2023/03/31 12:08:30;;;;;;;5.70;2.10;;;;;;;14.21;84.62;98782.03;5058231;28;20230;-71
2023/03/31 12:11:08;;;;;;;11.80;1.93;;;;;;;13.17;91.11;98741.22;5057289;28;20309;-72
2023/03/31 12:14:11;;;;;;;6.77;1.93;;;;;;;12.68;92.52;98749.41;5054356;28;20207;-72
2023/03/31 12:16:49;;;;;;;5.17;1.40;;;;;;;12.35;91.37;98725.28;5054317;28;20701;-71
2023/03/31 12:19:32;;;;;;;5.80;1.23;;;;;;;12.17;89.78;98734.50;5059801;28;20318;-73
2023/03/31 12:22:17;;;;;;;5.10;1.30;;;;;;;12.21;90.76;98736.19;5056239;28;20555;-73
2023/03/31 12:24:45;;;;;;;5.53;1.60;;;;;;;12.21;89.20;98730.00;5057379;28;20736;-74